Time;durP1;ratioP1;P1;durP2;ratioP2;P2;SDS_P1;SDS_P2;PMS_P1;PMS_P2;Temp;Humidity;BMP_temperature;BMP_pressure;BME280_temperature;BME280_humidity;BME280_pressure;Samples;Min_cycle;Max_cycle;Signal;HPM_P1;HPM_P2
2021/08/29 00:00:11;;;;;;;0.40;0.40;;;16.80;99.90;;;;;;5098411;28;20024;-87
2021/08/29 00:02:37;;;;;;;1.45;0.50;;;16.80;99.90;;;;;;5098641;28;20026;-87
2021/08/29 00:05:05;;;;;;;0.45;0.45;;;16.80;99.90;;;;;;5099683;28;20111;-87
2021/08/29 00:07:30;;;;;;;0.47;0.47;;;16.70;99.90;;;;;;5084321;28;20024;-86
2021/08/29 00:09:56;;;;;;;0.60;0.60;;;16.70;99.90;;;;;;5116547;28;20015;-86
2021/08/29 00:12:22;;;;;;;0.60;0.60;;;16.70;99.90;;;;;;5098536;28;20079;-87
2021/08/29 00:14:48;;;;;;;0.75;0.60;;;16.70;99.90;;;;;;5098600;28;20057;-86
2021/08/29 00:17:14;;;;;;;0.68;0.65;;;16.70;99.90;;;;;;5115649;28;20027;-86
2021/08/29 00:19:40;;;;;;;1.38;0.60;;;16.70;99.90;;;;;;5098377;28;20045;-87
2021/08/29 00:22:05;;;;;;;0.65;0.60;;;16.70;99.90;;;;;;5116251;28;20027;-87
2021/08/29 00:24:31;;;;;;;0.70;0.70;;;16.80;99.90;;;;;;5116470;28;20085;-86
2021/08/29 00:26:57;;;;;;;0.70;0.70;;;16.90;99.90;;;;;;5097764;28;20035;-86
2021/08/29 00:29:23;;;;;;;0.60;0.60;;;16.90;99.90;;;;;;5098170;28;20055;-87
2021/08/29 00:31:49;;;;;;;1.00;0.70;;;16.90;99.90;;;;;;5115860;28;20038;-87
2021/08/29 00:34:14;;;;;;;0.70;0.70;;;16.90;99.90;;;;;;5097940;28;20405;-87
2021/08/29 00:36:40;;;;;;;0.70;0.60;;;17.00;99.90;;;;;;5097804;28;20015;-88
2021/08/29 00:39:06;;;;;;;0.60;0.60;;;16.90;99.90;;;;;;5097637;28;20520;-87
2021/08/29 00:41:32;;;;;;;0.43;0.40;;;16.90;99.90;;;;;;5096624;28;20103;-88
2021/08/29 00:43:58;;;;;;;0.73;0.60;;;16.90;99.90;;;;;;5097908;28;20027;-86
2021/08/29 00:46:24;;;;;;;0.65;0.65;;;16.80;99.90;;;;;;5097390;28;20479;-87
2021/08/29 00:48:51;;;;;;;1.13;0.85;;;16.80;99.90;;;;;;5097255;28;20508;-87
2021/08/29 00:51:18;;;;;;;0.70;0.70;;;16.80;99.90;;;;;;5115772;28;20045;-86
2021/08/29 00:53:54;;;;;;;0.65;0.65;;;16.80;99.90;;;;;;5097423;28;20035;-88
2021/08/29 00:56:20;;;;;;;0.70;0.70;;;16.80;99.90;;;;;;5097683;28;20550;-86
2021/08/29 00:58:48;;;;;;;0.70;0.70;;;16.80;99.90;;;;;;5097092;28;20118;-86
2021/08/29 01:01:17;;;;;;;0.70;0.70;;;16.80;99.90;;;;;;5097333;28;20441;-88
2021/08/29 01:03:42;;;;;;;0.60;0.60;;;16.80;99.90;;;;;;5097507;28;20027;-87
2021/08/29 01:06:24;;;;;;;2.20;0.82;;;16.80;99.90;;;;;;5097508;28;20053;-86
2021/08/29 01:08:59;;;;;;;0.80;0.80;;;16.80;99.90;;;;;;5096859;28;20038;-87
2021/08/29 01:11:27;;;;;;;0.80;0.80;;;16.80;99.90;;;;;;5115434;28;20041;-87
2021/08/29 01:14:02;;;;;;;0.45;0.45;;;16.80;99.90;;;;;;5115390;28;20030;-88
2021/08/29 01:16:32;;;;;;;1.52;0.88;;;16.80;99.90;;;;;;5115360;28;20020;-86
2021/08/29 01:18:59;;;;;;;1.10;1.02;;;16.70;99.90;;;;;;5115175;28;20020;-86
2021/08/29 01:21:32;;;;;;;0.82;0.82;;;16.70;99.90;;;;;;5115063;28;20033;-87
2021/08/29 01:24:01;;;;;;;0.63;0.63;;;16.70;99.90;;;;;;5097011;28;20023;-87
2021/08/29 01:26:31;;;;;;;0.57;0.57;;;16.70;99.90;;;;;;5096904;28;20031;-86
2021/08/29 01:29:03;;;;;;;0.63;0.60;;;16.80;99.90;;;;;;5114841;28;20032;-87
2021/08/29 01:31:30;;;;;;;0.50;0.50;;;16.80;99.90;;;;;;5096974;28;20026;-87
2021/08/29 01:34:02;;;;;;;0.80;0.80;;;16.80;99.90;;;;;;5115058;28;20027;-88
2021/08/29 01:36:31;;;;;;;0.57;0.57;;;16.90;99.90;;;;;;5096896;28;20154;-87
2021/08/29 01:38:58;;;;;;;3.17;0.73;;;16.90;99.90;;;;;;5096584;28;20134;-86
2021/08/29 01:41:26;;;;;;;0.55;0.50;;;17.00;99.90;;;;;;5096738;28;20491;-87
2021/08/29 01:43:52;;;;;;;0.77;0.77;;;17.10;99.90;;;;;;5096574;28;20038;-87
2021/08/29 01:46:19;;;;;;;0.60;0.60;;;17.10;99.90;;;;;;5096379;28;20035;-87
2021/08/29 01:48:46;;;;;;;1.92;0.88;;;17.20;99.90;;;;;;5096432;28;20062;-87
2021/08/29 01:51:12;;;;;;;0.90;0.90;;;17.20;99.90;;;;;;5114556;28;20024;-87
2021/08/29 01:53:39;;;;;;;0.60;0.60;;;17.20;99.90;;;;;;5114213;28;20020;-87
2021/08/29 01:56:06;;;;;;;0.90;0.90;;;17.20;99.90;;;;;;5096380;28;20020;-87
2021/08/29 01:58:32;;;;;;;0.90;0.60;;;17.20;99.90;;;;;;5096342;28;20030;-88
2021/08/29 02:01:01;;;;;;;0.40;0.40;;;17.20;99.90;;;;;;5114707;28;20012;-88
2021/08/29 02:03:31;;;;;;;0.70;0.70;;;17.20;99.90;;;;;;5096214;28;20020;-87
2021/08/29 02:06:08;;;;;;;0.65;0.60;;;17.00;99.90;;;;;;5096306;28;20023;-87
2021/08/29 02:08:38;;;;;;;0.63;0.57;;;17.00;99.90;;;;;;5095920;28;20047;-88
2021/08/29 02:11:05;;;;;;;0.85;0.85;;;16.80;99.90;;;;;;5114542;28;20020;-88
2021/08/29 02:13:34;;;;;;;0.63;0.63;;;16.80;99.90;;;;;;5095912;28;20122;-88
2021/08/29 02:16:15;;;;;;;0.68;0.68;;;16.80;99.90;;;;;;5095772;28;20039;-87
2021/08/29 02:18:43;;;;;;;0.75;0.75;;;16.70;99.90;;;;;;5095346;28;20026;-88
2021/08/29 02:21:11;;;;;;;0.73;0.70;;;16.80;99.90;;;;;;5096204;28;20551;-88
2021/08/29 02:23:37;;;;;;;0.90;0.80;;;16.80;99.90;;;;;;5096359;28;20382;-88
2021/08/29 02:26:03;;;;;;;3.92;0.73;;;16.90;99.90;;;;;;5096128;28;20114;-87
2021/08/29 02:28:29;;;;;;;0.70;0.70;;;16.80;99.90;;;;;;5113764;28;20058;-86
2021/08/29 02:30:55;;;;;;;0.80;0.50;;;16.80;99.90;;;;;;5096043;28;20066;-88
2021/08/29 02:33:22;;;;;;;0.63;0.63;;;16.80;99.90;;;;;;5095618;28;20024;-87
2021/08/29 02:35:50;;;;;;;0.70;0.70;;;16.70;99.90;;;;;;5114068;28;20368;-88
2021/08/29 02:38:17;;;;;;;0.57;0.47;;;16.60;99.90;;;;;;5095522;28;20039;-87
2021/08/29 02:40:44;;;;;;;0.95;0.63;;;16.50;99.90;;;;;;5114165;28;20024;-87
2021/08/29 02:43:10;;;;;;;0.63;0.63;;;16.50;99.90;;;;;;5114097;28;20027;-86
2021/08/29 02:45:38;;;;;;;1.90;0.68;;;16.40;99.90;;;;;;5096038;28;20506;-87
2021/08/29 02:48:04;;;;;;;0.60;0.60;;;16.40;99.90;;;;;;5113897;28;20055;-88
2021/08/29 02:50:31;;;;;;;0.65;0.65;;;16.40;99.90;;;;;;5095894;28;20030;-88
2021/08/29 02:52:57;;;;;;;0.60;0.60;;;16.30;99.90;;;;;;5095661;28;20376;-86
2021/08/29 02:55:24;;;;;;;0.57;0.57;;;16.30;99.90;;;;;;5113997;28;20019;-88
2021/08/29 02:57:59;;;;;;;0.50;0.40;;;16.30;99.90;;;;;;5095515;28;20092;-87
2021/08/29 03:00:25;;;;;;;0.63;0.63;;;16.30;99.90;;;;;;5095793;28;20055;-88
2021/08/29 03:02:50;;;;;;;0.50;0.50;;;16.20;99.90;;;;;;5095447;28;20023;-88
2021/08/29 03:05:16;;;;;;;0.50;0.50;;;16.20;99.90;;;;;;5097145;28;20518;-88
2021/08/29 03:07:42;;;;;;;0.80;0.65;;;16.10;99.90;;;;;;5099630;28;20398;-87
2021/08/29 03:10:09;;;;;;;0.60;0.60;;;16.10;99.90;;;;;;5117938;28;20547;-87
2021/08/29 03:12:35;;;;;;;0.60;0.40;;;16.00;99.90;;;;;;5117902;28;20023;-87
2021/08/29 03:15:01;;;;;;;0.75;0.50;;;16.00;99.90;;;;;;5117788;28;20016;-88
2021/08/29 03:17:27;;;;;;;1.20;0.50;;;16.00;99.90;;;;;;5099488;28;20052;-88
2021/08/29 03:19:55;;;;;;;4.90;0.57;;;16.00;99.90;;;;;;5099528;28;20027;-87
2021/08/29 03:22:21;;;;;;;1.13;0.47;;;16.00;99.90;;;;;;5117729;28;20019;-88
2021/08/29 03:24:47;;;;;;;0.52;0.52;;;16.00;99.90;;;;;;5117782;28;20139;-88
2021/08/29 03:27:13;;;;;;;0.50;0.50;;;16.00;99.90;;;;;;5099310;28;20496;-87
2021/08/29 03:29:39;;;;;;;1.27;0.60;;;16.00;99.90;;;;;;5117661;28;20034;-88
2021/08/29 03:32:06;;;;;;;0.40;0.40;;;15.90;99.90;;;;;;5099533;28;20483;-88
2021/08/29 03:34:35;;;;;;;0.40;0.40;;;15.80;99.90;;;;;;5099135;28;20081;-88
2021/08/29 03:37:05;;;;;;;0.95;0.73;;;15.80;99.90;;;;;;5116836;28;20085;-88
2021/08/29 03:39:32;;;;;;;0.50;0.50;;;15.80;99.90;;;;;;5099071;28;20024;-88
2021/08/29 03:41:59;;;;;;;0.60;0.60;;;15.80;99.90;;;;;;5117271;28;20119;-87
2021/08/29 03:44:25;;;;;;;0.68;0.68;;;15.80;99.90;;;;;;5098957;28;20093;-87
2021/08/29 03:46:52;;;;;;;0.40;0.40;;;15.80;99.90;;;;;;5098881;28;20482;-87
2021/08/29 03:49:18;;;;;;;2.55;0.50;;;15.80;99.90;;;;;;5099022;28;20394;-87
2021/08/29 03:51:46;;;;;;;0.80;0.50;;;15.70;99.90;;;;;;5098863;28;20020;-87
2021/08/29 03:54:13;;;;;;;0.57;0.57;;;15.70;99.90;;;;;;5098801;28;20032;-88
2021/08/29 03:56:41;;;;;;;0.50;0.50;;;15.60;99.90;;;;;;5098585;28;20054;-87
2021/08/29 03:59:07;;;;;;;0.60;0.60;;;15.60;99.90;;;;;;5098736;28;20023;-87
2021/08/29 04:01:33;;;;;;;0.52;0.52;;;15.60;99.90;;;;;;5099011;28;20386;-89
2021/08/29 04:03:59;;;;;;;0.35;0.35;;;15.60;99.90;;;;;;5098833;28;20024;-88
2021/08/29 04:06:32;;;;;;;1.80;0.50;;;15.60;99.90;;;;;;5098768;28;20030;-87
2021/08/29 04:09:03;;;;;;;0.95;0.50;;;15.70;99.90;;;;;;5098797;28;20035;-88
2021/08/29 04:11:30;;;;;;;0.50;0.50;;;15.60;99.90;;;;;;5098654;28;20103;-87
2021/08/29 04:13:57;;;;;;;0.68;0.55;;;15.60;99.90;;;;;;5098441;28;20027;-88
2021/08/29 04:16:24;;;;;;;0.50;0.50;;;15.60;99.90;;;;;;5098415;28;20065;-88
2021/08/29 04:18:51;;;;;;;0.50;0.50;;;15.60;99.90;;;;;;5098507;28;20047;-87
2021/08/29 04:21:20;;;;;;;0.60;0.57;;;15.50;99.90;;;;;;5116817;28;20020;-88
2021/08/29 04:23:46;;;;;;;0.50;0.50;;;15.50;99.90;;;;;;5098413;28;20073;-87
2021/08/29 04:26:12;;;;;;;0.35;0.35;;;15.50;99.90;;;;;;5098500;28;20034;-87
2021/08/29 04:28:38;;;;;;;0.38;0.38;;;15.50;99.90;;;;;;5098370;28;20026;-88
2021/08/29 04:31:27;;;;;;;0.50;0.50;;;15.50;99.90;;;;;;5098370;28;20060;-88
2021/08/29 04:33:53;;;;;;;0.60;0.60;;;15.40;99.90;;;;;;5098277;28;20020;-87
2021/08/29 04:36:19;;;;;;;0.40;0.40;;;15.20;99.90;;;;;;5098181;28;20471;-88
2021/08/29 04:38:45;;;;;;;0.50;0.50;;;15.10;99.90;;;;;;5097675;28;20047;-88
2021/08/29 04:41:10;;;;;;;0.40;0.40;;;15.00;99.90;;;;;;5097885;28;20088;-88
2021/08/29 04:43:36;;;;;;;0.45;0.45;;;15.10;99.90;;;;;;5098054;28;20068;-89
2021/08/29 04:46:04;;;;;;;0.50;0.50;;;15.20;99.90;;;;;;5098190;28;20035;-88
2021/08/29 04:48:30;;;;;;;0.50;0.50;;;15.20;99.90;;;;;;5097630;28;20031;-87
2021/08/29 04:50:55;;;;;;;0.50;0.50;;;15.10;99.90;;;;;;5097989;28;20675;-87
2021/08/29 04:53:21;;;;;;;1.55;0.50;;;15.10;99.90;;;;;;5097656;28;20070;-87
2021/08/29 04:55:47;;;;;;;0.35;0.30;;;15.10;99.90;;;;;;5116173;28;20100;-87
2021/08/29 04:58:12;;;;;;;0.70;0.57;;;15.20;99.90;;;;;;5115753;28;20023;-88
2021/08/29 05:00:38;;;;;;;0.40;0.40;;;15.20;99.90;;;;;;5116114;28;20102;-88
2021/08/29 05:03:04;;;;;;;0.50;0.50;;;15.10;99.90;;;;;;5097427;28;20396;-88
2021/08/29 05:05:29;;;;;;;0.30;0.30;;;15.10;99.90;;;;;;5095762;28;20050;-88
2021/08/29 05:07:55;;;;;;;0.50;0.50;;;15.10;99.90;;;;;;5088123;28;20080;-87
2021/08/29 05:10:21;;;;;;;4.68;0.60;;;15.10;99.90;;;;;;5097693;28;20038;-88
2021/08/29 05:12:47;;;;;;;0.30;0.30;;;15.30;99.90;;;;;;5097595;28;20023;-88
2021/08/29 05:15:12;;;;;;;0.35;0.30;;;15.40;99.90;;;;;;5097498;28;20020;-88
2021/08/29 05:17:38;;;;;;;0.98;0.52;;;15.40;99.90;;;;;;5097304;28;20053;-88
2021/08/29 05:20:05;;;;;;;1.20;0.50;;;15.40;99.90;;;;;;5097318;28;20030;-88
2021/08/29 05:22:30;;;;;;;0.40;0.40;;;15.30;99.90;;;;;;5097266;28;20030;-87
2021/08/29 05:24:56;;;;;;;0.38;0.38;;;15.30;99.90;;;;;;5097375;28;20028;-87
2021/08/29 05:27:22;;;;;;;0.93;0.50;;;15.30;99.90;;;;;;5096542;28;20022;-87
2021/08/29 05:29:48;;;;;;;0.40;0.40;;;15.40;99.90;;;;;;5096689;28;20032;-88
2021/08/29 05:32:13;;;;;;;0.45;0.30;;;15.40;99.90;;;;;;5115439;28;20129;-88
2021/08/29 05:34:39;;;;;;;0.40;0.40;;;15.50;99.90;;;;;;5114920;28;20028;-87
2021/08/29 05:37:05;;;;;;;0.45;0.45;;;15.40;99.90;;;;;;5114728;28;20027;-88
2021/08/29 05:39:31;;;;;;;0.47;0.47;;;15.50;99.90;;;;;;5097029;28;20039;-88
2021/08/29 05:41:57;;;;;;;0.43;0.43;;;15.60;99.90;;;;;;5096978;28;20070;-88
2021/08/29 05:44:22;;;;;;;0.57;0.57;;;15.70;99.90;;;;;;5096870;28;20493;-88
2021/08/29 05:46:48;;;;;;;0.50;0.35;;;15.80;99.90;;;;;;5096625;28;20478;-87
2021/08/29 05:49:14;;;;;;;3.45;0.40;;;15.90;99.90;;;;;;5096733;28;20055;-88
2021/08/29 05:51:39;;;;;;;0.93;0.40;;;15.90;99.90;;;;;;5096704;28;20510;-87
2021/08/29 05:54:05;;;;;;;0.40;0.32;;;16.00;99.90;;;;;;5096824;28;20128;-87
2021/08/29 05:56:31;;;;;;;0.25;0.25;;;16.10;99.90;;;;;;5096423;28;20028;-88
2021/08/29 05:58:56;;;;;;;1.17;0.50;;;16.20;99.90;;;;;;5096600;28;20020;-87
2021/08/29 06:01:22;;;;;;;0.40;0.40;;;16.20;99.90;;;;;;5096414;28;20118;-87
2021/08/29 06:03:48;;;;;;;0.43;0.30;;;16.30;99.90;;;;;;5096408;28;20042;-87
2021/08/29 06:06:14;;;;;;;0.82;0.40;;;16.30;99.90;;;;;;5114190;28;20081;-87
2021/08/29 06:08:39;;;;;;;0.30;0.30;;;16.30;99.90;;;;;;5114580;28;20024;-87
2021/08/29 06:11:07;;;;;;;0.57;0.57;;;16.50;99.90;;;;;;5114479;28;20058;-87
2021/08/29 06:13:34;;;;;;;0.43;0.43;;;16.50;99.90;;;;;;5114244;28;20553;-87
2021/08/29 06:15:59;;;;;;;2.03;0.30;;;16.50;99.90;;;;;;5095521;28;20030;-87
2021/08/29 06:18:25;;;;;;;3.95;0.73;;;16.60;99.90;;;;;;5114156;28;20425;-87
2021/08/29 06:20:51;;;;;;;1.08;0.50;;;16.70;99.90;;;;;;5095801;28;20068;-86
2021/08/29 06:23:17;;;;;;;0.75;0.50;;;16.80;99.90;;;;;;5113979;28;20027;-87
2021/08/29 06:25:43;;;;;;;0.50;0.50;;;16.80;99.90;;;;;;5095767;28;20040;-86
2021/08/29 06:28:08;;;;;;;0.30;0.30;;;16.90;99.90;;;;;;5095776;28;20024;-86
2021/08/29 06:30:34;;;;;;;0.38;0.38;;;16.90;99.90;;;;;;5095712;28;20024;-86
2021/08/29 06:33:00;;;;;;;0.28;0.28;;;17.00;99.90;;;;;;5095433;28;20180;-86
2021/08/29 06:35:25;;;;;;;0.40;0.40;;;17.10;99.90;;;;;;5092418;28;20050;-87
2021/08/29 06:37:51;;;;;;;0.50;0.50;;;17.20;99.90;;;;;;5113491;28;20403;-86
2021/08/29 06:40:17;;;;;;;0.30;0.30;;;17.30;99.90;;;;;;5094816;28;20038;-87
2021/08/29 06:42:43;;;;;;;0.40;0.40;;;17.30;99.90;;;;;;5095477;28;20116;-87
2021/08/29 06:45:10;;;;;;;1.08;0.45;;;17.40;99.90;;;;;;5095485;28;20103;-86
2021/08/29 06:47:36;;;;;;;0.65;0.30;;;17.50;99.90;;;;;;5095343;28;20024;-86
2021/08/29 06:50:03;;;;;;;0.25;0.25;;;17.60;99.90;;;;;;5095523;28;20551;-86
2021/08/29 06:52:28;;;;;;;3.78;0.63;;;17.70;99.90;;;;;;5095236;28;20027;-86
2021/08/29 06:54:54;;;;;;;0.60;0.40;;;17.70;99.90;;;;;;5095500;28;20385;-87
2021/08/29 06:57:20;;;;;;;0.40;0.40;;;17.80;99.90;;;;;;5095315;28;20081;-86
2021/08/29 06:59:47;;;;;;;0.77;0.28;;;17.90;99.60;;;;;;5095370;28;20019;-86
2021/08/29 07:02:13;;;;;;;0.40;0.40;;;17.90;99.70;;;;;;5113597;28;20114;-86
2021/08/29 07:04:38;;;;;;;0.30;0.30;;;18.00;99.50;;;;;;5099983;28;20060;-86
2021/08/29 07:07:04;;;;;;;0.35;0.35;;;18.00;99.60;;;;;;5075103;28;20051;-86
2021/08/29 07:09:30;;;;;;;0.50;0.50;;;18.00;99.50;;;;;;5075195;28;20020;-86
2021/08/29 07:11:56;;;;;;;0.90;0.35;;;18.10;99.10;;;;;;5075081;28;20052;-85
2021/08/29 07:14:22;;;;;;;0.45;0.25;;;18.10;98.00;;;;;;5093076;28;20059;-85
2021/08/29 07:16:48;;;;;;;0.35;0.35;;;18.20;97.80;;;;;;5074936;28;20024;-86
2021/08/29 07:19:13;;;;;;;3.80;0.50;;;18.20;98.20;;;;;;5093269;28;20039;-88
2021/08/29 07:21:39;;;;;;;0.50;0.50;;;18.20;98.30;;;;;;5075082;28;20051;-87
2021/08/29 07:24:05;;;;;;;1.40;0.70;;;18.30;97.60;;;;;;5093170;28;20020;-86
2021/08/29 07:26:31;;;;;;;0.63;0.57;;;18.30;97.10;;;;;;5088240;28;20038;-86
2021/08/29 07:28:56;;;;;;;0.40;0.40;;;18.40;97.70;;;;;;5095210;28;20031;-86
2021/08/29 07:31:22;;;;;;;0.32;0.32;;;18.40;98.00;;;;;;5095096;28;20042;-85
2021/08/29 07:33:48;;;;;;;0.40;0.40;;;18.50;98.80;;;;;;5094883;28;20023;-86
2021/08/29 07:36:13;;;;;;;0.30;0.30;;;18.50;99.40;;;;;;5094966;28;20015;-85
2021/08/29 07:38:39;;;;;;;0.32;0.32;;;18.60;99.90;;;;;;5112899;28;20500;-85
2021/08/29 07:41:05;;;;;;;3.22;0.40;;;18.60;99.90;;;;;;5112911;28;20016;-86
2021/08/29 07:43:31;;;;;;;0.20;0.20;;;18.70;99.90;;;;;;5094488;28;20120;-85
2021/08/29 07:45:57;;;;;;;0.20;0.20;;;18.80;99.70;;;;;;5094758;28;20118;-86
2021/08/29 07:48:23;;;;;;;0.57;0.57;;;18.90;99.20;;;;;;5112844;28;20102;-85
2021/08/29 07:50:49;;;;;;;0.40;0.40;;;19.10;99.90;;;;;;5113423;28;20038;-88
2021/08/29 07:53:15;;;;;;;0.60;0.60;;;19.20;99.90;;;;;;5116374;28;20099;-85
2021/08/29 07:55:41;;;;;;;0.50;0.50;;;19.30;97.50;;;;;;5098276;28;20015;-85
2021/08/29 07:58:06;;;;;;;0.60;0.47;;;19.30;96.50;;;;;;5098220;28;20403;-84
2021/08/29 08:00:32;;;;;;;4.32;0.60;;;19.30;97.90;;;;;;5116108;28;20470;-84
2021/08/29 08:02:58;;;;;;;0.50;0.50;;;19.50;98.70;;;;;;5116566;28;20037;-84
2021/08/29 08:05:25;;;;;;;1.15;0.60;;;19.50;99.00;;;;;;5098102;28;20059;-84
2021/08/29 08:07:51;;;;;;;0.30;0.30;;;19.60;98.50;;;;;;5097849;28;20028;-84
2021/08/29 08:10:17;;;;;;;0.50;0.50;;;19.70;96.50;;;;;;5115957;28;20027;-84
2021/08/29 08:12:42;;;;;;;0.50;0.50;;;19.70;95.70;;;;;;5097425;28;20091;-84
2021/08/29 08:15:11;;;;;;;0.98;0.50;;;19.80;96.70;;;;;;5097948;28;20081;-85
2021/08/29 08:17:37;;;;;;;0.40;0.40;;;19.70;95.50;;;;;;5077526;28;20024;-84
2021/08/29 08:20:03;;;;;;;0.40;0.40;;;19.80;94.70;;;;;;5077560;28;20031;-84
2021/08/29 08:22:29;;;;;;;4.43;0.50;;;19.90;93.60;;;;;;5110604;28;20058;-84
2021/08/29 08:24:54;;;;;;;0.43;0.43;;;19.90;93.80;;;;;;5097687;28;20113;-84
2021/08/29 08:27:20;;;;;;;0.30;0.30;;;19.90;94.30;;;;;;5097539;28;20028;-84
2021/08/29 08:29:46;;;;;;;0.30;0.30;;;20.10;92.90;;;;;;5097797;28;20475;-84
2021/08/29 08:32:13;;;;;;;0.20;0.20;;;20.10;93.50;;;;;;5115991;28;20024;-80
2021/08/29 08:34:38;;;;;;;0.60;0.60;;;20.20;94.10;;;;;;5115629;28;20067;-81
2021/08/29 08:37:04;;;;;;;0.60;0.60;;;20.30;93.30;;;;;;5115334;28;20057;-80
2021/08/29 08:39:30;;;;;;;0.60;0.60;;;20.40;93.00;;;;;;5097152;28;20028;-81
2021/08/29 08:41:55;;;;;;;0.90;0.50;;;20.40;92.70;;;;;;5115446;28;20077;-81
2021/08/29 08:44:21;;;;;;;0.68;0.40;;;20.40;92.10;;;;;;5115634;28;20081;-80
2021/08/29 08:46:47;;;;;;;0.75;0.60;;;20.40;93.30;;;;;;5115003;28;20031;-80
2021/08/29 08:49:16;;;;;;;0.57;0.40;;;20.50;93.30;;;;;;5097155;28;20058;-79
2021/08/29 08:51:45;;;;;;;0.30;0.30;;;20.50;94.10;;;;;;5115010;28;20051;-79
2021/08/29 08:54:16;;;;;;;0.85;0.45;;;20.60;96.20;;;;;;5091004;28;20515;-79
2021/08/29 08:56:42;;;;;;;0.85;0.68;;;20.70;93.90;;;;;;5114854;28;20019;-81
2021/08/29 08:59:08;;;;;;;0.40;0.40;;;20.70;93.60;;;;;;5076254;28;20044;-80
2021/08/29 09:01:34;;;;;;;0.57;0.40;;;20.80;93.00;;;;;;5084989;28;20055;-79
2021/08/29 09:04:00;;;;;;;2.72;0.60;;;20.80;93.40;;;;;;5095772;28;20115;-80
2021/08/29 09:06:26;;;;;;;0.50;0.50;;;20.90;92.60;;;;;;5115150;28;20084;-80
2021/08/29 09:08:52;;;;;;;0.35;0.35;;;21.00;92.60;;;;;;5096902;28;20027;-80
2021/08/29 09:11:18;;;;;;;0.60;0.50;;;21.00;91.40;;;;;;5115108;28;20028;-80
2021/08/29 09:13:47;;;;;;;0.73;0.43;;;21.10;92.00;;;;;;5096734;28;20118;-80
2021/08/29 09:16:17;;;;;;;0.60;0.60;;;21.10;87.90;;;;;;5096712;28;20452;-79
2021/08/29 09:18:51;;;;;;;0.40;0.40;;;21.20;87.00;;;;;;5096684;28;20474;-79
2021/08/29 09:21:27;;;;;;;0.40;0.40;;;21.20;86.70;;;;;;5114877;28;20031;-79
2021/08/29 09:23:54;;;;;;;0.80;0.68;;;21.20;86.90;;;;;;5096600;28;20015;-80
2021/08/29 09:26:22;;;;;;;0.38;0.38;;;21.20;85.50;;;;;;5114742;28;20112;-79
2021/08/29 09:28:49;;;;;;;0.47;0.47;;;21.20;85.60;;;;;;5114823;28;20023;-79
2021/08/29 09:31:16;;;;;;;1.52;0.30;;;21.20;84.00;;;;;;5096405;28;20118;-79
2021/08/29 09:33:42;;;;;;;0.45;0.43;;;21.30;84.90;;;;;;5096243;28;20027;-80
2021/08/29 09:36:11;;;;;;;0.30;0.30;;;21.20;86.20;;;;;;5114680;28;20027;-80
2021/08/29 09:38:38;;;;;;;0.68;0.50;;;21.20;84.50;;;;;;5114536;28;20119;-79
2021/08/29 09:41:22;;;;;;;0.60;0.60;;;21.20;83.80;;;;;;5096078;28;20461;-79
2021/08/29 09:43:48;;;;;;;0.50;0.50;;;21.20;83.40;;;;;;5082093;28;20554;-79
2021/08/29 09:46:14;;;;;;;0.60;0.60;;;21.20;86.80;;;;;;5095792;28;20114;-79
2021/08/29 09:48:46;;;;;;;0.40;0.40;;;21.30;82.90;;;;;;5114349;28;20068;-79
2021/08/29 09:51:12;;;;;;;0.40;0.40;;;21.30;84.20;;;;;;5114386;28;20560;-79
2021/08/29 09:53:43;;;;;;;0.70;0.40;;;21.30;85.10;;;;;;5114011;28;20479;-79
2021/08/29 09:56:23;;;;;;;0.20;0.20;;;21.30;84.20;;;;;;5113788;28;20028;-79
2021/08/29 09:58:48;;;;;;;0.50;0.50;;;21.40;87.40;;;;;;5114291;28;20107;-79
2021/08/29 10:01:16;;;;;;;0.52;0.52;;;21.40;87.60;;;;;;5114102;28;20059;-79
2021/08/29 10:03:47;;;;;;;0.50;0.50;;;21.40;87.80;;;;;;5113744;28;20023;-79
2021/08/29 10:06:31;;;;;;;0.75;0.50;;;21.40;86.90;;;;;;5095518;28;20050;-79
2021/08/29 10:08:57;;;;;;;0.40;0.40;;;21.40;85.20;;;;;;5095791;28;20130;-80
2021/08/29 10:11:25;;;;;;;0.50;0.50;;;21.40;85.40;;;;;;5113970;28;20058;-80
2021/08/29 10:13:52;;;;;;;1.08;0.57;;;21.40;84.30;;;;;;5113281;28;20538;-80
2021/08/29 10:16:19;;;;;;;2.35;0.70;;;21.40;83.40;;;;;;5095512;28;20019;-80
2021/08/29 10:18:56;;;;;;;1.00;0.60;;;21.40;83.80;;;;;;5113940;28;20019;-79
2021/08/29 10:21:27;;;;;;;0.60;0.60;;;21.50;84.60;;;;;;5095605;28;20102;-80
2021/08/29 10:23:55;;;;;;;0.50;0.50;;;21.60;85.50;;;;;;5095212;28;20491;-80
2021/08/29 10:26:22;;;;;;;0.40;0.40;;;21.60;84.10;;;;;;5095425;28;20066;-79
2021/08/29 10:28:57;;;;;;;1.50;0.60;;;21.80;86.60;;;;;;5095478;28;20085;-80
2021/08/29 10:31:32;;;;;;;0.98;0.50;;;21.90;86.50;;;;;;5095485;28;20042;-80
2021/08/29 10:34:00;;;;;;;0.60;0.60;;;21.90;84.10;;;;;;5113164;28;20024;-79
2021/08/29 10:36:26;;;;;;;1.30;0.60;;;21.90;82.20;;;;;;5094881;28;20524;-79
2021/08/29 10:38:53;;;;;;;0.55;0.50;;;22.00;85.10;;;;;;5095078;28;20062;-79
2021/08/29 10:41:21;;;;;;;0.68;0.68;;;22.10;84.80;;;;;;5113583;28;20019;-79
2021/08/29 10:43:48;;;;;;;0.68;0.65;;;22.00;81.80;;;;;;5113204;28;20072;-79
2021/08/29 10:46:15;;;;;;;0.82;0.82;;;22.00;82.10;;;;;;5113328;28;20027;-79
2021/08/29 10:48:49;;;;;;;0.82;0.80;;;22.00;81.40;;;;;;5113028;28;20099;-79
2021/08/29 10:51:19;;;;;;;1.20;0.75;;;22.00;81.40;;;;;;5113459;28;20045;-79
2021/08/29 10:53:53;;;;;;;2.28;0.80;;;22.10;84.00;;;;;;5094860;28;20028;-79
2021/08/29 10:56:19;;;;;;;0.80;0.80;;;22.30;83.30;;;;;;5113456;28;20020;-79
2021/08/29 10:58:47;;;;;;;0.75;0.75;;;22.20;80.30;;;;;;5095066;28;20036;-79
2021/08/29 11:01:35;;;;;;;1.02;0.90;;;22.30;83.60;;;;;;5113211;28;20024;-79
2021/08/29 11:04:22;;;;;;;0.77;0.77;;;22.30;85.70;;;;;;5112895;28;20032;-79
2021/08/29 11:06:47;;;;;;;0.75;0.75;;;22.30;79.50;;;;;;5095007;28;20040;-78
2021/08/29 11:09:40;;;;;;;0.77;0.77;;;22.30;79.90;;;;;;5113429;28;20525;-78
2021/08/29 11:12:15;;;;;;;1.17;1.00;;;22.30;81.20;;;;;;5113250;28;20024;-78
2021/08/29 11:14:51;;;;;;;2.38;0.80;;;22.30;80.00;;;;;;5112932;28;20036;-78
2021/08/29 11:17:20;;;;;;;1.05;1.05;;;22.30;79.00;;;;;;5094515;28;20015;-77
2021/08/29 11:19:51;;;;;;;0.90;0.75;;;22.30;79.50;;;;;;5113023;28;20506;-78
2021/08/29 11:22:21;;;;;;;0.85;0.63;;;22.30;79.00;;;;;;5113045;28;20109;-78
2021/08/29 11:24:49;;;;;;;0.95;0.80;;;22.30;78.70;;;;;;5113100;28;20035;-78
2021/08/29 11:27:37;;;;;;;1.00;1.00;;;22.40;80.00;;;;;;5116041;28;20027;-77
2021/08/29 11:30:36;;;;;;;0.80;0.80;;;22.50;78.80;;;;;;5098564;28;20546;-77
2021/08/29 11:33:26;;;;;;;1.00;1.00;;;22.50;77.40;;;;;;5102191;28;20044;-76
2021/08/29 11:35:52;;;;;;;1.00;0.80;;;22.60;80.50;;;;;;5110613;28;20032;-77
2021/08/29 11:38:21;;;;;;;0.90;0.90;;;22.70;80.70;;;;;;5116376;28;20051;-77
2021/08/29 11:41:10;;;;;;;1.17;1.08;;;22.80;77.80;;;;;;5116533;28;20046;-77
2021/08/29 11:43:41;;;;;;;1.55;1.00;;;22.90;80.30;;;;;;5116760;28;20027;-77
2021/08/29 11:46:14;;;;;;;1.90;0.73;;;22.90;80.30;;;;;;5116714;28;20034;-77
2021/08/29 11:49:01;;;;;;;0.80;0.80;;;23.00;81.00;;;;;;5098561;28;20518;-76
2021/08/29 11:51:35;;;;;;;0.82;0.82;;;23.10;77.20;;;;;;5116712;28;20046;-77
2021/08/29 11:54:03;;;;;;;1.10;1.00;;;23.10;78.90;;;;;;5116436;28;20019;-77
2021/08/29 11:56:31;;;;;;;0.75;0.75;;;23.20;81.30;;;;;;5116256;28;20031;-76
2021/08/29 11:59:01;;;;;;;1.33;0.82;;;23.30;80.30;;;;;;5116604;28;20485;-77
2021/08/29 12:01:30;;;;;;;0.70;0.70;;;23.20;79.40;;;;;;5116297;28;20012;-76
2021/08/29 12:03:57;;;;;;;1.10;0.90;;;23.20;79.80;;;;;;5116213;28;20089;-76
2021/08/29 12:06:36;;;;;;;1.30;1.02;;;23.30;80.20;;;;;;5116195;28;20019;-77
2021/08/29 12:09:12;;;;;;;2.70;1.20;;;23.40;81.40;;;;;;5116263;28;20027;-76
2021/08/29 12:11:40;;;;;;;1.42;1.20;;;23.40;79.70;;;;;;5116272;28;20055;-76
2021/08/29 12:14:16;;;;;;;0.98;0.98;;;23.40;81.20;;;;;;5097668;28;20027;-76
2021/08/29 12:17:02;;;;;;;3.05;1.10;;;23.60;80.80;;;;;;5097753;28;20020;-77
2021/08/29 12:19:32;;;;;;;1.17;1.08;;;23.70;79.10;;;;;;5115662;28;20050;-76
2021/08/29 12:21:59;;;;;;;8.73;1.40;;;23.70;78.60;;;;;;5115706;28;20024;-77
2021/08/29 12:24:27;;;;;;;1.70;1.48;;;23.70;80.20;;;;;;5115869;28;20493;-76
2021/08/29 12:27:14;;;;;;;2.45;1.48;;;23.80;78.40;;;;;;5097456;28;20016;-76
2021/08/29 12:29:46;;;;;;;1.10;1.10;;;23.70;78.50;;;;;;5115671;28;20175;-76
2021/08/29 12:32:15;;;;;;;1.00;0.93;;;23.80;78.60;;;;;;5115986;28;20024;-77
2021/08/29 12:34:41;;;;;;;1.42;1.33;;;23.80;78.90;;;;;;5115705;28;20028;-77
2021/08/29 12:37:12;;;;;;;1.75;1.23;;;23.70;78.50;;;;;;5113982;28;20030;-76
2021/08/29 12:39:39;;;;;;;1.50;1.05;;;23.80;77.40;;;;;;5115157;28;20030;-76
2021/08/29 12:42:24;;;;;;;1.60;1.25;;;23.80;78.60;;;;;;5115716;28;20016;-76
2021/08/29 12:44:50;;;;;;;1.90;1.20;;;23.80;76.20;;;;;;5115654;28;20019;-76
2021/08/29 12:47:16;;;;;;;1.95;1.27;;;23.90;78.40;;;;;;5096825;28;20139;-76
2021/08/29 12:49:42;;;;;;;1.10;1.00;;;24.00;77.70;;;;;;5115204;28;20390;-76
2021/08/29 12:52:31;;;;;;;1.92;1.23;;;24.10;79.30;;;;;;5096960;28;20031;-76